Time;durP1;ratioP1;P1;durP2;ratioP2;P2;SDS_P1;SDS_P2;PMS_P1;PMS_P2;Temp;Humidity;BMP_temperature;BMP_pressure;BME280_temperature;BME280_humidity;BME280_pressure;Samples;Min_cycle;Max_cycle;Signal;HPM_P1;HPM_P2
2023/12/22 00:01:15;;;;;;;1.05;0.43;;;11.20;99.90;;;;;;5012766;28;20060;-44
2023/12/22 00:03:41;;;;;;;1.77;0.80;;;11.20;99.90;;;;;;5013356;28;20044;-45
2023/12/22 00:06:07;;;;;;;2.15;0.63;;;11.30;99.90;;;;;;5013655;28;20105;-44
2023/12/22 00:08:33;;;;;;;2.88;0.60;;;11.20;99.90;;;;;;5012571;28;20487;-44
2023/12/22 00:10:59;;;;;;;0.60;0.32;;;11.20;99.90;;;;;;5012640;28;20121;-44
2023/12/22 00:13:24;;;;;;;1.00;0.60;;;11.20;99.90;;;;;;5012988;28;20022;-42
2023/12/22 00:15:50;;;;;;;1.88;0.50;;;11.20;99.90;;;;;;5012604;28;20053;-45
2023/12/22 00:18:16;;;;;;;1.23;0.60;;;11.20;99.90;;;;;;5012372;28;20113;-44
2023/12/22 00:20:41;;;;;;;2.67;0.70;;;11.20;99.90;;;;;;5012695;28;20022;-44
2023/12/22 00:23:07;;;;;;;2.58;0.70;;;11.20;99.90;;;;;;5012171;28;20053;-44
2023/12/22 00:25:32;;;;;;;2.25;0.82;;;11.20;99.90;;;;;;5012387;28;20060;-45
2023/12/22 00:27:58;;;;;;;1.60;0.57;;;11.20;99.90;;;;;;5012269;28;20026;-45
2023/12/22 00:30:24;;;;;;;2.58;0.90;;;11.20;99.90;;;;;;5012271;28;20026;-45
2023/12/22 00:32:50;;;;;;;1.45;0.70;;;11.20;99.90;;;;;;5012188;28;20021;-44
2023/12/22 00:35:15;;;;;;;2.40;0.80;;;11.20;99.90;;;;;;5012284;28;20044;-44
2023/12/22 00:37:41;;;;;;;3.67;1.10;;;11.20;99.90;;;;;;5011459;28;20095;-44
2023/12/22 00:40:09;;;;;;;3.13;0.90;;;11.20;99.90;;;;;;5012279;28;20040;-44
2023/12/22 00:42:35;;;;;;;1.92;0.70;;;11.20;99.90;;;;;;5012034;28;20026;-44
2023/12/22 00:45:00;;;;;;;1.52;0.73;;;11.20;99.90;;;;;;5012013;28;20045;-44
2023/12/22 00:47:26;;;;;;;1.17;0.73;;;11.20;99.90;;;;;;5011831;28;20022;-44
2023/12/22 00:49:51;;;;;;;1.70;0.60;;;11.20;99.90;;;;;;5011903;28;20038;-43
2023/12/22 00:52:17;;;;;;;2.40;0.70;;;11.20;99.90;;;;;;5011808;28;20037;-44
2023/12/22 00:54:43;;;;;;;2.20;0.95;;;11.20;99.90;;;;;;5011952;28;20342;-44
2023/12/22 00:57:08;;;;;;;3.25;0.73;;;11.20;99.90;;;;;;5011866;28;20495;-44
2023/12/22 00:59:34;;;;;;;3.05;1.05;;;11.20;99.90;;;;;;5011756;28;20022;-44
2023/12/22 01:02:00;;;;;;;3.13;0.80;;;11.20;99.90;;;;;;5011656;28;20037;-44
2023/12/22 01:04:25;;;;;;;2.35;1.00;;;11.20;99.90;;;;;;5011695;28;20036;-45
2023/12/22 01:06:51;;;;;;;1.70;0.73;;;11.20;99.90;;;;;;5011671;28;20364;-44
2023/12/22 01:09:19;;;;;;;2.28;0.75;;;11.20;99.90;;;;;;5011672;28;20026;-44
2023/12/22 01:11:45;;;;;;;2.65;0.70;;;11.20;99.90;;;;;;5010345;28;20055;-44
2023/12/22 01:14:13;;;;;;;2.90;0.85;;;11.20;99.90;;;;;;5011621;28;20152;-44
2023/12/22 01:16:39;;;;;;;1.90;0.88;;;11.20;99.90;;;;;;5011791;28;20392;-44
2023/12/22 01:19:05;;;;;;;2.08;0.93;;;11.20;99.90;;;;;;5011548;28;20026;-44
2023/12/22 01:21:30;;;;;;;1.00;0.60;;;11.20;99.90;;;;;;5011666;28;20037;-44
2023/12/22 01:23:58;;;;;;;3.65;1.02;;;11.20;99.90;;;;;;5011340;28;20040;-44
2023/12/22 01:26:24;;;;;;;1.75;0.70;;;11.20;99.90;;;;;;5011911;28;20028;-44
2023/12/22 01:28:50;;;;;;;1.88;0.73;;;11.20;99.90;;;;;;5011386;28;20373;-44
2023/12/22 01:31:16;;;;;;;1.92;0.80;;;11.20;99.90;;;;;;5011383;28;20072;-44
2023/12/22 01:33:42;;;;;;;2.88;0.77;;;11.20;99.90;;;;;;5011449;28;20453;-45
2023/12/22 01:36:07;;;;;;;1.67;0.63;;;11.20;99.90;;;;;;5011320;28;20038;-44
2023/12/22 01:38:33;;;;;;;2.55;0.70;;;11.20;99.90;;;;;;5011401;28;20377;-45
2023/12/22 01:40:59;;;;;;;2.92;0.80;;;11.20;99.90;;;;;;5011384;28;20460;-45
2023/12/22 01:43:24;;;;;;;1.15;0.60;;;11.20;99.90;;;;;;5011320;28;20029;-44
2023/12/22 01:45:56;;;;;;;1.48;0.60;;;11.20;99.90;;;;;;5010066;28;20033;-44
2023/12/22 01:48:23;;;;;;;3.30;0.90;;;11.20;99.90;;;;;;5011251;28;20045;-43
2023/12/22 01:50:52;;;;;;;2.78;0.80;;;11.20;99.90;;;;;;5013270;28;20038;-44
2023/12/22 01:53:19;;;;;;;2.22;0.60;;;11.20;99.90;;;;;;5015178;28;20088;-44
2023/12/22 01:55:46;;;;;;;2.13;0.73;;;11.20;99.90;;;;;;5015340;28;20429;-44
2023/12/22 01:58:12;;;;;;;2.08;0.60;;;11.20;99.90;;;;;;5013601;28;20387;-44
2023/12/22 02:00:38;;;;;;;1.45;0.60;;;11.20;99.90;;;;;;5015046;28;20097;-45
2023/12/22 02:03:04;;;;;;;2.03;0.60;;;11.20;99.90;;;;;;5014992;28;20100;-45
2023/12/22 02:05:29;;;;;;;0.98;0.60;;;11.20;99.90;;;;;;5015085;28;20096;-44
2023/12/22 02:07:55;;;;;;;1.65;0.60;;;11.20;99.90;;;;;;5014846;28;20104;-43
2023/12/22 02:10:21;;;;;;;2.08;0.70;;;11.20;99.90;;;;;;5014868;28;20026;-45
2023/12/22 02:12:47;;;;;;;1.70;0.63;;;11.20;99.90;;;;;;5014793;28;20026;-45
2023/12/22 02:15:12;;;;;;;2.50;0.70;;;11.20;99.90;;;;;;5014896;28;20101;-45
2023/12/22 02:17:48;;;;;;;1.55;0.70;;;11.20;99.90;;;;;;5014640;28;20026;-44
2023/12/22 02:20:14;;;;;;;2.17;0.70;;;11.20;99.90;;;;;;5014754;28;20109;-45
2023/12/22 02:22:39;;;;;;;0.88;0.40;;;11.20;99.90;;;;;;5014529;28;20041;-44
2023/12/22 02:25:05;;;;;;;1.55;0.60;;;11.20;99.90;;;;;;5014503;28;20029;-44
2023/12/22 02:27:53;;;;;;;3.45;0.70;;;11.20;99.90;;;;;;5014475;28;20699;-45
2023/12/22 02:30:26;;;;;;;1.83;0.98;;;11.20;99.90;;;;;;5014589;28;20026;-43
2023/12/22 02:32:57;;;;;;;2.13;0.77;;;11.20;99.90;;;;;;5014572;28;20048;-43
2023/12/22 02:35:26;;;;;;;1.73;0.73;;;11.20;99.90;;;;;;5014522;28;20030;-45
2023/12/22 02:37:53;;;;;;;2.53;0.73;;;11.20;99.90;;;;;;5014225;28;20504;-44
2023/12/22 02:40:20;;;;;;;1.77;0.60;;;11.20;99.90;;;;;;5014379;28;20018;-44
2023/12/22 02:42:46;;;;;;;2.15;0.70;;;11.20;99.90;;;;;;5014348;28;20097;-44
2023/12/22 02:45:17;;;;;;;2.35;0.80;;;11.20;99.90;;;;;;5014513;28;20034;-44
2023/12/22 02:47:43;;;;;;;1.98;0.70;;;11.20;99.90;;;;;;5013103;28;20535;-44
2023/12/22 02:50:10;;;;;;;2.38;0.80;;;11.20;99.90;;;;;;5013992;28;20029;-44
2023/12/22 02:52:35;;;;;;;1.83;0.73;;;11.20;99.90;;;;;;5014105;28;20559;-43
2023/12/22 02:55:02;;;;;;;2.40;0.80;;;11.20;99.90;;;;;;5014081;28;20109;-44
2023/12/22 02:57:28;;;;;;;2.20;0.73;;;11.20;99.90;;;;;;5013931;28;20068;-44
2023/12/22 02:59:53;;;;;;;1.48;0.45;;;11.20;99.90;;;;;;5013989;28;20034;-43
2023/12/22 03:02:19;;;;;;;2.90;0.68;;;11.20;99.90;;;;;;5013296;28;20445;-45
2023/12/22 03:04:46;;;;;;;1.67;0.65;;;11.20;99.90;;;;;;5013573;28;20392;-44
2023/12/22 03:07:12;;;;;;;1.40;0.47;;;11.20;99.90;;;;;;5013794;28;20060;-43
2023/12/22 03:09:38;;;;;;;0.85;0.52;;;11.30;99.90;;;;;;5013748;28;20054;-43
2023/12/22 03:12:03;;;;;;;2.20;0.70;;;11.30;99.90;;;;;;5013848;28;20062;-43
2023/12/22 03:14:33;;;;;;;1.13;0.43;;;11.30;99.90;;;;;;5013729;28;20034;-44
2023/12/22 03:17:06;;;;;;;2.40;0.63;;;11.40;99.90;;;;;;5013727;28;20026;-44
2023/12/22 03:19:32;;;;;;;2.25;0.60;;;11.40;99.90;;;;;;5013556;28;20029;-44
2023/12/22 03:21:58;;;;;;;2.65;0.77;;;11.50;99.90;;;;;;5013428;28;20034;-44
2023/12/22 03:24:25;;;;;;;1.98;0.50;;;11.50;99.90;;;;;;5013499;28;20112;-44
2023/12/22 03:26:51;;;;;;;1.60;0.50;;;11.50;99.90;;;;;;5013431;28;20017;-45
2023/12/22 03:29:17;;;;;;;2.22;0.82;;;11.50;99.90;;;;;;5013332;28;20038;-44
2023/12/22 03:31:44;;;;;;;3.80;0.70;;;11.50;99.90;;;;;;5013156;28;20030;-44
2023/12/22 03:34:09;;;;;;;1.63;0.60;;;11.50;99.90;;;;;;5013502;28;20035;-44
2023/12/22 03:36:35;;;;;;;2.13;0.80;;;11.50;99.90;;;;;;5013210;28;20026;-44
2023/12/22 03:39:01;;;;;;;3.03;0.60;;;11.60;99.90;;;;;;5013336;28;20392;-44
2023/12/22 03:41:28;;;;;;;2.50;0.60;;;11.60;99.90;;;;;;5013406;28;20048;-44
2023/12/22 03:43:54;;;;;;;1.65;0.60;;;11.60;99.90;;;;;;5013121;28;20026;-44
2023/12/22 03:46:20;;;;;;;2.42;0.80;;;11.60;99.90;;;;;;5013038;28;20029;-44
2023/12/22 03:48:46;;;;;;;2.53;0.80;;;11.60;99.90;;;;;;5012911;28;20026;-43
2023/12/22 03:51:13;;;;;;;3.38;0.68;;;11.60;99.90;;;;;;5012986;28;20599;-45
2023/12/22 03:53:38;;;;;;;1.77;0.77;;;11.60;99.90;;;;;;5013071;28;20434;-44
2023/12/22 03:56:04;;;;;;;2.05;0.70;;;11.60;99.90;;;;;;5012906;28;20105;-43
2023/12/22 03:58:30;;;;;;;2.75;0.60;;;11.60;99.90;;;;;;5012843;28;20022;-45
2023/12/22 04:00:56;;;;;;;2.88;0.80;;;11.60;99.90;;;;;;5012719;28;20045;-44
2023/12/22 04:03:22;;;;;;;2.20;0.90;;;11.60;99.90;;;;;;5012795;28;20030;-44
2023/12/22 04:05:47;;;;;;;2.92;0.80;;;11.60;99.90;;;;;;5012718;28;20514;-45
2023/12/22 04:08:13;;;;;;;2.05;0.68;;;11.60;99.90;;;;;;5012675;28;20113;-44
2023/12/22 04:10:39;;;;;;;3.55;0.68;;;11.60;99.90;;;;;;5012726;28;20026;-44
2023/12/22 04:13:04;;;;;;;2.22;0.73;;;11.60;99.90;;;;;;5011786;28;20388;-44
2023/12/22 04:15:30;;;;;;;3.20;0.93;;;11.60;99.90;;;;;;5012602;28;20064;-44
2023/12/22 04:17:55;;;;;;;3.95;0.80;;;11.60;99.90;;;;;;5012801;28;20029;-44
2023/12/22 04:20:21;;;;;;;2.30;0.90;;;11.60;99.90;;;;;;5012607;28;20045;-43
2023/12/22 04:22:47;;;;;;;1.23;0.60;;;11.60;99.90;;;;;;5012706;28;20549;-44
2023/12/22 04:25:12;;;;;;;2.53;0.70;;;11.60;99.90;;;;;;5012408;28;20040;-45
2023/12/22 04:27:38;;;;;;;2.25;0.63;;;11.60;99.90;;;;;;5012304;28;20024;-44
2023/12/22 04:30:04;;;;;;;3.38;0.90;;;11.60;99.90;;;;;;5012315;28;20091;-44
2023/12/22 04:32:29;;;;;;;1.83;0.70;;;11.60;99.90;;;;;;5012036;28;20030;-44
2023/12/22 04:34:55;;;;;;;3.17;0.80;;;11.60;99.90;;;;;;5012404;28;20077;-44
2023/12/22 04:37:21;;;;;;;3.70;0.77;;;11.60;99.90;;;;;;5012146;28;20032;-44
2023/12/22 04:39:46;;;;;;;1.90;0.75;;;11.60;99.90;;;;;;5012117;28;20075;-44
2023/12/22 04:42:12;;;;;;;1.50;0.55;;;11.60;99.90;;;;;;5012157;28;20028;-45
2023/12/22 04:44:37;;;;;;;3.10;0.70;;;11.60;99.90;;;;;;5011982;28;20030;-45
2023/12/22 04:47:03;;;;;;;1.75;0.90;;;11.60;99.90;;;;;;5011901;28;20101;-45
2023/12/22 04:49:29;;;;;;;1.95;0.70;;;11.50;99.90;;;;;;5011911;28;20025;-44
2023/12/22 04:51:55;;;;;;;2.95;1.00;;;11.60;99.90;;;;;;5011910;28;20049;-44
2023/12/22 04:54:21;;;;;;;3.63;0.90;;;11.60;99.90;;;;;;5011930;28;20417;-45
2023/12/22 04:56:46;;;;;;;0.90;0.43;;;11.50;99.90;;;;;;5011916;28;20064;-45
2023/12/22 04:59:12;;;;;;;3.97;0.95;;;11.60;99.90;;;;;;5011805;28;20120;-44
2023/12/22 05:01:37;;;;;;;2.15;0.77;;;11.50;99.90;;;;;;5011772;28;20028;-43
2023/12/22 05:04:03;;;;;;;1.13;0.55;;;11.50;99.90;;;;;;5011710;28;20022;-43
2023/12/22 05:06:29;;;;;;;2.45;0.75;;;11.50;99.90;;;;;;5011787;28;20388;-45
2023/12/22 05:08:56;;;;;;;4.10;0.98;;;11.50;99.90;;;;;;5011992;28;20128;-44
2023/12/22 05:11:22;;;;;;;2.97;0.65;;;11.50;99.90;;;;;;5011687;28;20093;-44
2023/12/22 05:13:47;;;;;;;3.60;1.23;;;11.50;99.90;;;;;;5011606;28;20155;-45
2023/12/22 05:16:13;;;;;;;3.22;0.70;;;11.50;99.90;;;;;;5011409;28;20389;-45
2023/12/22 05:18:39;;;;;;;2.15;0.88;;;11.50;99.90;;;;;;5011542;28;20487;-44
2023/12/22 05:21:05;;;;;;;3.17;0.90;;;11.50;99.90;;;;;;5011606;28;20029;-45
2023/12/22 05:23:30;;;;;;;3.40;0.93;;;11.50;99.90;;;;;;5010031;28;20038;-44
2023/12/22 05:25:56;;;;;;;3.10;0.70;;;11.50;99.90;;;;;;5011466;28;20025;-44
2023/12/22 05:28:22;;;;;;;2.75;0.90;;;11.50;99.90;;;;;;5011488;28;20058;-43
2023/12/22 05:30:47;;;;;;;2.85;0.82;;;11.50;99.90;;;;;;5011541;28;20030;-45
2023/12/22 05:33:13;;;;;;;3.50;0.90;;;11.50;99.90;;;;;;5011552;28;20022;-45
2023/12/22 05:35:38;;;;;;;1.10;0.57;;;11.50;99.90;;;;;;5011420;28;20018;-44
2023/12/22 05:38:04;;;;;;;4.38;1.02;;;11.50;99.90;;;;;;5011471;28;20029;-44
2023/12/22 05:40:31;;;;;;;2.83;0.85;;;11.50;99.90;;;;;;5011430;28;20015;-45
2023/12/22 05:42:57;;;;;;;2.30;0.88;;;11.50;99.90;;;;;;5012446;28;20113;-44
2023/12/22 05:45:25;;;;;;;3.42;0.90;;;11.50;99.90;;;;;;5011366;28;20026;-45
2023/12/22 05:47:51;;;;;;;3.63;1.15;;;11.40;99.90;;;;;;5011115;28;20022;-44
2023/12/22 05:50:16;;;;;;;1.80;0.95;;;11.40;99.90;;;;;;5011481;28;20502;-44
2023/12/22 05:52:46;;;;;;;2.33;0.77;;;11.40;99.90;;;;;;5011157;28;20030;-44
2023/12/22 05:55:11;;;;;;;4.57;1.08;;;11.40;99.90;;;;;;5011275;28;20064;-44
2023/12/22 05:57:37;;;;;;;2.85;0.90;;;11.40;99.90;;;;;;5010973;28;20038;-44
2023/12/22 06:00:07;;;;;;;3.38;0.80;;;11.40;99.90;;;;;;5011255;28;20105;-44
2023/12/22 06:02:33;;;;;;;4.00;0.90;;;11.40;99.90;;;;;;5011350;28;20030;-46
2023/12/22 06:04:59;;;;;;;5.82;1.10;;;11.40;99.90;;;;;;5011138;28;20025;-44
2023/12/22 06:07:25;;;;;;;3.42;1.00;;;11.40;99.90;;;;;;5011120;28;20036;-43
2023/12/22 06:09:51;;;;;;;3.33;1.00;;;11.40;99.90;;;;;;5011133;28;20384;-44
2023/12/22 06:12:17;;;;;;;5.03;1.30;;;11.40;99.90;;;;;;5010936;28;20052;-44
2023/12/22 06:14:42;;;;;;;3.60;1.05;;;11.40;99.90;;;;;;5011050;28;20030;-44
2023/12/22 06:17:08;;;;;;;4.25;1.20;;;11.40;99.90;;;;;;5011169;28;20038;-43
2023/12/22 06:19:35;;;;;;;3.95;1.10;;;11.40;99.90;;;;;;5010941;28;20033;-44
2023/12/22 06:22:01;;;;;;;3.35;0.95;;;11.40;99.90;;;;;;5009490;28;20046;-45
2023/12/22 06:24:27;;;;;;;2.58;0.90;;;11.40;99.90;;;;;;5010965;28;20025;-43
2023/12/22 06:26:53;;;;;;;3.58;1.10;;;11.40;99.90;;;;;;5011298;28;20476;-44
2023/12/22 06:29:18;;;;;;;4.00;1.25;;;11.40;99.90;;;;;;5010927;28;20046;-44
2023/12/22 06:31:44;;;;;;;4.60;1.33;;;11.40;99.90;;;;;;5011028;28;20022;-44
2023/12/22 06:34:09;;;;;;;5.75;1.02;;;11.40;99.90;;;;;;5010971;28;20041;-43
2023/12/22 06:36:35;;;;;;;6.78;1.30;;;11.40;99.90;;;;;;5012434;28;20096;-43
2023/12/22 06:39:01;;;;;;;3.58;1.00;;;11.40;99.90;;;;;;5014363;28;20030;-43
2023/12/22 06:41:29;;;;;;;2.38;0.98;;;11.40;99.90;;;;;;5014208;28;20392;-45
2023/12/22 06:43:55;;;;;;;4.68;1.00;;;11.30;99.90;;;;;;5014402;28;20038;-44
2023/12/22 06:46:22;;;;;;;4.22;1.20;;;11.30;99.90;;;;;;5014190;28;20021;-45
2023/12/22 06:48:49;;;;;;;4.50;1.15;;;11.30;99.90;;;;;;5014152;28;20088;-44
2023/12/22 06:51:19;;;;;;;3.42;1.13;;;11.30;99.90;;;;;;5014126;28;20018;-44
2023/12/22 06:53:45;;;;;;;3.40;1.30;;;11.30;99.90;;;;;;5014193;28;20037;-44
2023/12/22 06:56:18;;;;;;;3.78;1.25;;;11.30;99.90;;;;;;5013968;28;20030;-44
2023/12/22 06:58:46;;;;;;;3.08;1.17;;;11.30;99.90;;;;;;5013897;28;20025;-44
2023/12/22 07:01:12;;;;;;;4.63;1.10;;;11.40;99.90;;;;;;5013976;28;20033;-44
2023/12/22 07:03:38;;;;;;;4.00;1.38;;;11.30;99.90;;;;;;5013885;28;20034;-44
2023/12/22 07:06:04;;;;;;;4.00;1.30;;;11.30;99.90;;;;;;5013896;28;20057;-44
2023/12/22 07:08:29;;;;;;;4.93;1.45;;;11.30;99.90;;;;;;5014052;28;20456;-43
2023/12/22 07:10:55;;;;;;;4.28;1.10;;;11.30;99.90;;;;;;5014213;28;20108;-43
2023/12/22 07:13:21;;;;;;;4.78;1.30;;;11.30;99.90;;;;;;5013955;28;20030;-44
2023/12/22 07:15:47;;;;;;;4.13;1.20;;;11.30;99.90;;;;;;5013566;28;20029;-45
2023/12/22 07:18:13;;;;;;;4.28;1.23;;;11.30;99.90;;;;;;5013675;28;20357;-44
2023/12/22 07:20:39;;;;;;;2.83;0.82;;;11.30;99.90;;;;;;5012487;28;20097;-42
2023/12/22 07:23:04;;;;;;;3.22;0.90;;;11.30;99.90;;;;;;5013406;28;20080;-44
2023/12/22 07:25:36;;;;;;;4.95;1.20;;;11.30;99.90;;;;;;5013682;28;20030;-44
2023/12/22 07:28:01;;;;;;;4.03;1.00;;;11.30;99.90;;;;;;5013651;28;20025;-44
2023/12/22 07:30:27;;;;;;;3.42;1.05;;;11.30;99.90;;;;;;5013676;28;20109;-44
2023/12/22 07:32:53;;;;;;;3.92;1.15;;;11.30;99.90;;;;;;5013629;28;20395;-44
2023/12/22 07:35:19;;;;;;;3.38;1.13;;;11.30;99.90;;;;;;5013390;28;20021;-44
2023/12/22 07:37:44;;;;;;;3.78;1.15;;;11.30;99.90;;;;;;5013173;28;20026;-45
2023/12/22 07:40:11;;;;;;;2.75;0.90;;;11.30;99.90;;;;;;5013309;28;20438;-44
2023/12/22 07:42:37;;;;;;;4.45;1.35;;;11.30;99.90;;;;;;5013173;28;20431;-44
2023/12/22 07:45:04;;;;;;;3.40;0.95;;;11.30;99.90;;;;;;5013071;28;20071;-44
2023/12/22 07:47:30;;;;;;;2.35;0.90;;;11.30;99.90;;;;;;5013045;28;20018;-44
2023/12/22 07:49:55;;;;;;;3.45;1.00;;;11.30;99.90;;;;;;5013061;28;20546;-44
2023/12/22 07:52:21;;;;;;;4.60;1.10;;;11.30;99.90;;;;;;5012808;28;20029;-44
2023/12/22 07:54:47;;;;;;;4.40;1.25;;;11.30;99.90;;;;;;5013009;28;20450;-44
2023/12/22 07:57:13;;;;;;;3.30;1.20;;;11.30;99.90;;;;;;5012918;28;20429;-44
2023/12/22 07:59:38;;;;;;;4.78;1.05;;;11.30;99.90;;;;;;5012733;28;20061;-43
2023/12/22 08:02:04;;;;;;;3.13;1.13;;;11.30;99.90;;;;;;5012702;28;20025;-44
2023/12/22 08:04:30;;;;;;;3.85;1.05;;;11.30;99.90;;;;;;5012758;28;20084;-44
2023/12/22 08:06:56;;;;;;;4.38;1.48;;;11.30;99.90;;;;;;5012658;28;20465;-44
2023/12/22 08:09:22;;;;;;;4.28;1.00;;;11.30;99.90;;;;;;5012719;28;20492;-44
2023/12/22 08:11:52;;;;;;;3.33;1.02;;;11.30;99.90;;;;;;5012631;28;20057;-44
2023/12/22 08:14:18;;;;;;;5.45;1.80;;;11.30;99.90;;;;;;5012489;28;20042;-44
2023/12/22 08:16:44;;;;;;;4.43;1.20;;;11.30;99.90;;;;;;5012556;28;20104;-43
2023/12/22 08:19:10;;;;;;;3.95;1.42;;;11.30;99.90;;;;;;5012515;28;20496;-45
2023/12/22 08:21:36;;;;;;;5.55;1.40;;;11.30;99.90;;;;;;5012360;28;20032;-45
2023/12/22 08:24:01;;;;;;;5.72;1.10;;;11.30;99.90;;;;;;5012699;28;20038;-43
2023/12/22 08:26:27;;;;;;;3.63;1.20;;;11.30;99.90;;;;;;5012360;28;20105;-44
2023/12/22 08:28:52;;;;;;;7.53;1.30;;;11.30;99.90;;;;;;5012217;28;20018;-43
2023/12/22 08:31:18;;;;;;;5.65;1.48;;;11.30;99.90;;;;;;5012299;28;20104;-44
2023/12/22 08:33:45;;;;;;;4.00;1.33;;;11.30;99.90;;;;;;5012590;28;20025;-42
2023/12/22 08:36:11;;;;;;;5.40;1.50;;;11.30;99.90;;;;;;5012058;28;20104;-43
2023/12/22 08:38:40;;;;;;;4.53;1.60;;;11.40;99.90;;;;;;5012142;28;20072;-45
2023/12/22 08:41:10;;;;;;;4.32;1.25;;;11.40;99.90;;;;;;5012451;28;20033;-44
2023/12/22 08:43:38;;;;;;;3.47;1.35;;;11.40;99.90;;;;;;5012190;28;20396;-43
2023/12/22 08:46:04;;;;;;;6.05;1.80;;;11.50;99.90;;;;;;5012301;28;20056;-44
2023/12/22 08:48:30;;;;;;;5.88;1.58;;;11.50;99.90;;;;;;5011962;28;20042;-43
2023/12/22 08:50:55;;;;;;;5.85;1.85;;;11.50;99.90;;;;;;5012802;28;20048;-44
2023/12/22 08:53:21;;;;;;;7.13;1.52;;;11.60;99.90;;;;;;5010615;28;20029;-44
2023/12/22 08:55:46;;;;;;;8.38;1.60;;;11.50;99.90;;;;;;5011920;28;20018;-44
2023/12/22 08:58:12;;;;;;;7.50;1.83;;;11.60;99.90;;;;;;5011759;28;20388;-41
2023/12/22 09:00:37;;;;;;;6.22;1.77;;;11.60;99.90;;;;;;5011872;28;20026;-43
2023/12/22 09:03:04;;;;;;;5.53;1.63;;;11.70;99.90;;;;;;5011738;28;20104;-44
2023/12/22 09:05:29;;;;;;;6.22;2.13;;;11.70;99.90;;;;;;5011816;28;20022;-43
2023/12/22 09:07:55;;;;;;;6.95;1.60;;;11.80;99.90;;;;;;5011777;28;20029;-44
2023/12/22 09:10:21;;;;;;;7.55;1.67;;;11.80;99.90;;;;;;5010447;28;20025;-43
2023/12/22 09:12:46;;;;;;;6.38;1.67;;;11.90;99.90;;;;;;5012339;28;20388;-43
2023/12/22 09:15:12;;;;;;;7.07;2.03;;;11.90;99.90;;;;;;5012143;28;20037;-44
2023/12/22 09:17:38;;;;;;;7.10;2.03;;;12.00;99.90;;;;;;5011497;28;20069;-44
2023/12/22 09:20:04;;;;;;;7.22;1.58;;;12.10;99.90;;;;;;5011607;28;20068;-43
2023/12/22 09:22:30;;;;;;;8.18;2.08;;;12.10;99.90;;;;;;5011430;28;20081;-44
2023/12/22 09:24:56;;;;;;;9.90;1.60;;;12.20;99.90;;;;;;5011444;28;20539;-44
2023/12/22 09:27:21;;;;;;;3.55;1.23;;;12.20;99.90;;;;;;5011889;28;20048;-44
2023/12/22 09:29:47;;;;;;;9.13;1.83;;;12.30;99.90;;;;;;5011436;28;20076;-43
2023/12/22 09:32:13;;;;;;;5.72;1.88;;;12.30;99.90;;;;;;5011282;28;20108;-44
2023/12/22 09:34:40;;;;;;;4.45;1.80;;;12.30;99.90;;;;;;5011840;28;20040;-44
2023/12/22 09:37:06;;;;;;;7.20;1.85;;;12.40;99.90;;;;;;5011412;28;20026;-44
2023/12/22 09:39:31;;;;;;;4.55;1.90;;;12.40;99.90;;;;;;5011279;28;20033;-44
2023/12/22 09:41:57;;;;;;;4.57;1.45;;;12.50;99.90;;;;;;5011326;28;20022;-44
2023/12/22 09:44:24;;;;;;;4.95;1.75;;;12.50;99.90;;;;;;5011400;28;20480;-44
2023/12/22 09:46:50;;;;;;;8.07;1.77;;;12.60;99.90;;;;;;5011239;28;20104;-44
2023/12/22 09:49:20;;;;;;;6.90;2.13;;;12.70;99.90;;;;;;5011313;28;20032;-44
2023/12/22 09:51:46;;;;;;;4.82;1.60;;;12.70;99.90;;;;;;5011307;28;20022;-44
2023/12/22 09:54:13;;;;;;;5.32;2.05;;;12.70;99.90;;;;;;5011293;28;20026;-42
2023/12/22 09:56:43;;;;;;;7.25;1.90;;;12.80;99.90;;;;;;5011014;28;20045;-43
2023/12/22 09:59:12;;;;;;;4.95;1.60;;;12.80;99.90;;;;;;5011657;28;20112;-44
2023/12/22 10:01:45;;;;;;;6.13;1.90;;;12.80;99.90;;;;;;5011243;28;20297;-44
2023/12/22 10:04:14;;;;;;;5.68;1.60;;;12.90;99.90;;;;;;5011394;28;20030;-44
2023/12/22 10:06:41;;;;;;;4.57;1.50;;;12.90;99.90;;;;;;5011168;28;20018;-44
2023/12/22 10:09:08;;;;;;;5.97;1.92;;;13.00;99.90;;;;;;5011051;28;20088;-44
2023/12/22 10:11:36;;;;;;;6.03;1.70;;;13.00;99.90;;;;;;5012521;28;20476;-44
2023/12/22 10:14:03;;;;;;;6.55;2.00;;;13.10;99.90;;;;;;5014812;28;20030;-44
2023/12/22 10:16:29;;;;;;;4.57;1.55;;;13.10;99.90;;;;;;5014818;28;20025;-44
2023/12/22 10:18:55;;;;;;;4.25;1.70;;;13.10;99.90;;;;;;5014909;28;20069;-44
2023/12/22 10:21:21;;;;;;;4.88;1.60;;;13.20;99.90;;;;;;5014720;28;20535;-44
2023/12/22 10:23:46;;;;;;;3.83;1.60;;;13.20;99.90;;;;;;5014615;28;20030;-43
2023/12/22 10:26:12;;;;;;;4.70;1.65;;;13.20;99.90;;;;;;5014589;28;20057;-43
2023/12/22 10:28:38;;;;;;;5.18;1.55;;;13.30;99.90;;;;;;5014413;28;20105;-44
2023/12/22 10:31:06;;;;;;;5.15;1.48;;;13.30;99.90;;;;;;5014494;28;20109;-44
2023/12/22 10:33:32;;;;;;;4.40;1.50;;;13.30;99.90;;;;;;5014590;28;20022;-44
2023/12/22 10:36:02;;;;;;;5.88;1.55;;;13.30;99.90;;;;;;5014424;28;20034;-44
2023/12/22 10:38:33;;;;;;;5.30;1.60;;;13.40;99.90;;;;;;5014479;28;20036;-44
2023/12/22 10:40:59;;;;;;;5.20;1.90;;;13.40;99.90;;;;;;5014674;28;20105;-44
2023/12/22 10:43:25;;;;;;;3.85;1.40;;;13.40;99.90;;;;;;5014296;28;20118;-44
2023/12/22 10:45:53;;;;;;;4.80;1.45;;;13.50;99.90;;;;;;5014250;28;20468;-44
2023/12/22 10:48:19;;;;;;;5.68;1.77;;;13.50;99.90;;;;;;5014195;28;20059;-44
2023/12/22 10:50:47;;;;;;;5.75;1.70;;;13.50;99.90;;;;;;5014250;28;20026;-44
2023/12/22 10:53:13;;;;;;;5.30;1.50;;;13.50;99.80;;;;;;5014210;28;20018;-44
2023/12/22 10:55:38;;;;;;;4.70;1.67;;;13.60;99.80;;;;;;5013852;28;20145;-44
2023/12/22 10:58:05;;;;;;;4.40;1.40;;;13.60;99.80;;;;;;5014115;28;20100;-43
2023/12/22 11:00:33;;;;;;;3.45;1.55;;;13.60;99.70;;;;;;5014165;28;20091;-44
2023/12/22 11:03:03;;;;;;;4.72;1.50;;;13.60;99.70;;;;;;5014060;28;20037;-44
2023/12/22 11:05:32;;;;;;;3.67;1.23;;;13.60;99.70;;;;;;5014230;28;20033;-44
2023/12/22 11:08:03;;;;;;;4.13;1.75;;;13.60;99.70;;;;;;5013792;28;20248;-44
2023/12/22 11:10:32;;;;;;;5.70;1.42;;;13.70;99.70;;;;;;5013968;28;20068;-44
2023/12/22 11:12:58;;;;;;;2.13;1.13;;;13.70;99.60;;;;;;5014028;28;20022;-44
2023/12/22 11:15:26;;;;;;;3.55;1.40;;;13.70;99.60;;;;;;5013904;28;20034;-44
2023/12/22 11:17:56;;;;;;;3.63;1.52;;;13.70;99.60;;;;;;5014197;28;20025;-44
2023/12/22 11:20:24;;;;;;;3.90;1.40;;;13.70;99.60;;;;;;5014011;28;20519;-44
2023/12/22 11:22:51;;;;;;;3.00;1.13;;;13.70;99.60;;;;;;5013464;28;20408;-44
2023/12/22 11:25:17;;;;;;;4.75;1.33;;;13.70;99.50;;;;;;5013587;28;20084;-44
2023/12/22 11:27:47;;;;;;;3.28;1.30;;;13.80;99.50;;;;;;5013561;28;20061;-44
2023/12/22 11:30:14;;;;;;;4.38;1.40;;;13.80;99.50;;;;;;5013670;28;20026;-43
2023/12/22 11:32:40;;;;;;;3.63;1.25;;;13.80;99.40;;;;;;5013338;28;20395;-43
2023/12/22 11:35:07;;;;;;;4.38;1.40;;;13.80;99.40;;;;;;5013340;28;20022;-44
2023/12/22 11:37:36;;;;;;;4.15;1.17;;;13.80;99.40;;;;;;5013177;28;20077;-44
2023/12/22 11:40:02;;;;;;;3.47;1.50;;;13.80;99.40;;;;;;5011959;28;20029;-44
2023/12/22 11:42:36;;;;;;;3.42;1.20;;;13.80;99.30;;;;;;5013168;28;20033;-44
2023/12/22 11:45:02;;;;;;;3.00;1.20;;;13.90;99.30;;;;;;5013414;28;20025;-44
2023/12/22 11:47:29;;;;;;;3.13;1.10;;;13.90;99.30;;;;;;5014051;28;20190;-44
2023/12/22 11:49:55;;;;;;;3.15;1.40;;;13.90;99.30;;;;;;5013680;28;20546;-44
2023/12/22 11:52:31;;;;;;;3.70;1.25;;;13.90;99.30;;;;;;5012978;28;20484;-44
2023/12/22 11:54:58;;;;;;;3.15;1.20;;;13.90;99.20;;;;;;5013236;28;20038;-43
2023/12/22 11:57:37;;;;;;;2.58;1.00;;;13.90;99.20;;;;;;5012577;28;20424;-44
2023/12/22 12:00:34;;;;;;;2.28;0.85;;;13.90;99.20;;;;;;5012942;28;20041;-44
2023/12/22 12:03:06;;;;;;;2.95;0.93;;;13.90;99.20;;;;;;5012778;28;20098;-44
2023/12/22 12:05:31;;;;;;;2.47;1.10;;;13.90;99.20;;;;;;5012596;28;20026;-44
2023/12/22 12:08:06;;;;;;;2.15;1.00;;;13.90;99.10;;;;;;5012560;28;20025;-44
2023/12/22 12:10:32;;;;;;;2.28;1.08;;;13.90;99.10;;;;;;5012839;28;20152;-44
2023/12/22 12:13:09;;;;;;;3.33;0.95;;;14.00;99.10;;;;;;5012868;28;20044;-44
2023/12/22 12:15:35;;;;;;;2.80;1.10;;;14.00;99.10;;;;;;5012613;28;20056;-44
2023/12/22 12:18:01;;;;;;;3.40;1.40;;;14.00;99.00;;;;;;5012413;28;20069;-44
2023/12/22 12:20:28;;;;;;;1.58;0.90;;;14.00;99.00;;;;;;5012552;28;20156;-44
2023/12/22 12:22:54;;;;;;;2.55;1.08;;;14.00;99.00;;;;;;5012415;28;20037;-43
2023/12/22 12:25:25;;;;;;;1.33;0.70;;;14.00;99.00;;;;;;5012333;28;20499;-44
2023/12/22 12:28:01;;;;;;;2.72;0.93;;;14.00;99.00;;;;;;5012298;28;20152;-45
2023/12/22 12:30:27;;;;;;;1.70;0.80;;;14.00;98.90;;;;;;5012294;28;20072;-43
2023/12/22 12:32:53;;;;;;;2.08;0.85;;;14.00;98.90;;;;;;5012292;28;20030;-44
2023/12/22 12:35:19;;;;;;;1.75;0.82;;;14.10;99.00;;;;;;5012043;28;20034;-43
2023/12/22 12:37:47;;;;;;;3.42;1.40;;;14.10;99.00;;;;;;5010756;28;20036;-44
2023/12/22 12:40:18;;;;;;;2.88;1.00;;;14.10;98.90;;;;;;5012256;28;20056;-44
2023/12/22 12:42:44;;;;;;;2.10;0.82;;;14.10;98.90;;;;;;5012132;28;20030;-44
2023/12/22 12:45:10;;;;;;;2.08;0.98;;;14.10;98.90;;;;;;5011899;28;20040;-44